Statewide Weather Sensors

Route Weather Station Name Milepost Date / Time Surface Status Surface Temp Precip Intensity Wind Avg Wind Gust Dir Dewpoint Humidity Air Temp Visibility
I 25 Wyo Hill 3.52 Apr 07, 2020 01:44 pm     None None 23 mph 39 mph W 21.2°F 20% 62.6°F > 1/2 mi
I 25 Whitaker 30.2 Apr 07, 2020 01:44 pm Dry 88.9°F None None 33 mph 40 mph W 28.4°F 28% 60.8°F > 1/2 mi
I 25 Bear Creek 46.77 Apr 07, 2020 01:44 pm Dry 93.7°F None None 32 mph 43 mph W 21.2°F 20% 62.6°F > 1/2 mi
I 25 Bordeaux 70.8 Apr 07, 2020 01:44 pm Dry 93.7°F None   38 mph 50 mph SW 21.2°F 19% 64.4°F  
I 25 Coleman 98.7 Apr 07, 2020 01:44 pm Dry 88.3°F None None 31 mph 45 mph W 24.8°F 22% 62.6°F > 1/2 mi
I 25 Platte/Converse County Line 119.9 Apr 07, 2020 01:44 pm Dry 89.1°F None None 40 mph 40 mph S     -56.2°F > 1/2 mi
I 25 Deer Creek 164.2 Apr 07, 2020 01:44 pm Dry 83.7°F None None 27 mph 38 mph W       > 1/2 mi
I 25 Hat Six 181.67 Apr 07, 2020 01:44 pm Dry 75.2°F None None 32 mph 48 mph W 24.8°F 24% 60.8°F > 1/2 mi
I 25 F Street Hill 189.51 Apr 07, 2020 01:44 pm Dry 78.4°F None None 30 mph 47 mph W 23.0°F 24% 59.0°F > 1/2 mi
I 25 Twenty Mile Hill 207.2 Apr 07, 2020 01:44 pm     None   26 mph 42 mph W 24.8°F 25% 60.8°F  
I 25 Smokey Gap 228.58 Apr 07, 2020 01:44 pm Dry 72.9°F None None 30 mph 45 mph SW 23.0°F 24% 60.8°F > 1/2 mi
I 25 Tisdale 238.87 Apr 07, 2020 01:45 pm Dry 75.4°F None None 28 mph 47 mph W 24.8°F 24% 60.8°F > 1/2 mi
I 25 I-25 Divide 267.3 Apr 07, 2020 01:44 pm N/A   None None 33 mph 53 mph W 21.2°F 22% 60.8°F > 1/2 mi
I 80 Evanston POE .06 Apr 07, 2020 01:44 pm Dry 62.8°F None   1 mph 21 mph SW 26.6°F 36% 51.8°F > 1/2 mi
I 80 Evanston 4.2 Apr 07, 2020 01:44 pm Dry 83.8°F None None 16 mph 24 mph W 24.8°F 35% 51.8°F > 1/2 mi
I 80 Bear River Drive 6.94 Apr 07, 2020 01:44 pm Dry 66.2°F None   1 mph 19 mph W 24.8°F 33% 51.8°F > 1/2 mi
I 80 Painter 10.16 Apr 07, 2020 01:44 pm Dry 77.2°F None None 14 mph 25 mph S 24.8°F 34% 51.8°F > 1/2 mi
I 80 First Divide 13.86 Apr 07, 2020 01:44 pm N/A   None   17 mph 28 mph W 23.0°F 38% 48.2°F  
I 80 US 189 Interchange 17.66 Apr 07, 2020 01:44 pm Dry 82.2°F None None 15 mph 23 mph SW 24.8°F 34% 51.8°F > 1/2 mi
I 80 Coal Road 20.95 Apr 07, 2020 01:44 pm Dry 81.5°F None None 17 mph 22 mph S 24.8°F 37% 50.0°F > 1/2 mi
I 80 Leroy 23.35 Apr 07, 2020 01:44 pm Dry 86.2°F None None 12 mph 23 mph SW 23.0°F 31% 53.6°F > 1/2 mi
I 80 French 27.6 Apr 07, 2020 01:44 pm N/A 79.0°F None None 16 mph 28 mph W 23.0°F 33% 50.0°F > 1/2 mi
I 80 Church Butte 52.65 Apr 07, 2020 01:44 pm N/A   None None 17 mph 27 mph W 19.4°F 26% 53.6°F > 1/2 mi
I 80 Peru Hill 82.31 Apr 07, 2020 01:44 pm N/A   None   19 mph 24 mph W 12.2°F 16% 59.0°F  
I 80 Green River Tunnel 90.5 Apr 07, 2020 01:44 pm Dry 84.6°F None   15 mph 27 mph SW 24.8°F 26% 59.0°F  
I 80 Rock Springs West 97.9 Apr 07, 2020 01:44 pm Dry 81.5°F None None 14 mph 20 mph W 19.4°F 24% 55.4°F > 1/2 mi
I 80 Baxter Road 111.5 Apr 07, 2020 01:44 pm     None None 1 mph 23 mph   21.2°F 25% 55.4°F > 1/2 mi
I 80 Mile Marker 124.5 124.5 Apr 07, 2020 01:44 pm N/A   None None 16 mph 25 mph W 23.0°F 28% 55.4°F > 1/2 mi
I 80 Point of Rocks 129.8 Apr 07, 2020 01:44 pm N/A   None None 17 mph 25 mph NE 23.0°F 29% 55.4°F > 1/2 mi
I 80 Bitter Creek 141.83 Apr 07, 2020 01:44 pm Dry 83.7°F None   20 mph 29 mph W 21.2°F 28% 51.8°F  
I 80 Tipton 156.72 Apr 07, 2020 01:44 pm Dry 84.2°F None None 19 mph 27 mph SW 23.0°F 30% 53.6°F > 1/2 mi
I 80 Continental Divide 184.3 Apr 07, 2020 01:44 pm N/A   None   27 mph 39 mph SW 24.8°F 31% 53.6°F  
I 80 Sinclair 221.7 Apr 07, 2020 01:44 pm N/A   None None 22 mph 30 mph W 23.0°F 26% 57.2°F > 1/2 mi
I 80 Walcott Junction 234.66 Apr 07, 2020 01:44 pm N/A   None None 34 mph 42 mph W 23.0°F 30% 53.6°F > 1/2 mi
I 80 Dana Ridge 244.8 Apr 07, 2020 01:44 pm Dry 79.0°F None None 29 mph 41 mph SW 21.2°F 33% 50.0°F > 1/2 mi
I 80 Mile Marker 249.1 249.1 Apr 07, 2020 01:44 pm Dry 78.6°F None None 32 mph 43 mph NW 21.2°F 31% 50.0°F > 1/2 mi
I 80 Halleck Ridge 252.16 Apr 07, 2020 01:44 pm N/A   None None 31 mph 42 mph SW 23.0°F 34% 48.2°F > 1/2 mi
I 80 Elk Mountain 256.17 Apr 07, 2020 01:44 pm Trace Moisture 79.7°F None None 28 mph 47 mph S 21.2°F 30% 51.8°F > 1/2 mi
I 80 County Road 402 262 Apr 07, 2020 01:44 pm Dry 82.2°F None None 25 mph 47 mph S 19.4°F 28% 51.8°F > 1/2 mi
I 80 Wagonhound 266.58 Apr 07, 2020 01:44 pm N/A   None None 36 mph 48 mph SW       > 1/2 mi
I 80 Foote Creek 269.5 Apr 07, 2020 01:44 pm Dry 81.3°F None None 39 mph 45 mph W 21.2°F 34% 48.2°F > 1/2 mi
I 80 Arlington 271.8 Apr 07, 2020 01:44 pm Dry 81.0°F None None 34 mph 42 mph W 21.2°F 31% 50.0°F > 1/2 mi
I 80 Arlington East 273.85 Apr 07, 2020 01:44 pm Dry 85.5°F None None 26 mph 39 mph SW 19.4°F 32% 48.2°F > 1/2 mi
I 80 Cooper Cove 279.36 Apr 07, 2020 01:44 pm Dry 69.3°F None None 25 mph 43 mph S 24.8°F 36% 50.0°F > 1/2 mi
I 80 Strouss Hill 283.75 Apr 07, 2020 01:44 pm Dry 86.0°F None None 17 mph 27 mph SW 23.0°F 32% 51.8°F > 1/2 mi
I 80 Quealy Dome 289.5 Apr 07, 2020 01:44 pm Dry 82.8°F None None 20 mph 35 mph W 21.2°F 27% 53.6°F > 1/2 mi
I 80 Herrick Lane 297.66 Apr 07, 2020 01:44 pm N/A   None None 13 mph 18 mph SW 21.2°F 27% 55.4°F > 1/2 mi
I 80 Summit East 325.8 Apr 07, 2020 01:44 pm Dry 84.4°F None None 28 mph 39 mph SW 17.6°F 28% 48.2°F > 1/2 mi
I 80 Vedauwoo 329.4 Apr 07, 2020 01:44 pm Dry 73.8°F None None 29 mph 42 mph W 12.2°F 21% 50.0°F > 1/2 mi
I 80 Lone Tree 333.32 Apr 07, 2020 01:44 pm Dry 79.7°F None None 34 mph 47 mph W 12.2°F 20% 51.8°F > 1/2 mi
I 80 Buford East 336.1 Apr 07, 2020 01:44 pm Dry 81.5°F None None 30 mph 44 mph W 14.0°F 20% 53.6°F > 1/2 mi
I 80 Remount Road 340.5 Apr 07, 2020 01:44 pm N/A   None None 30 mph 34 mph W 14.0°F 19% 55.4°F > 1/2 mi
I 80 Otto 347.69 Apr 07, 2020 01:44 pm Dry 88.9°F None None 29 mph 43 mph W 12.2°F 15% 59.0°F > 1/2 mi
I 80 MP 353 353 Apr 07, 2020 01:44 pm Dry 91.0°F None None 34 mph 43 mph W 12.2°F 14% 60.8°F > 1/2 mi
I 80 Cheyenne East 373 Apr 07, 2020 01:44 pm Dry 92.5°F None None 19 mph 35 mph W 15.8°F 14% 64.4°F > 1/2 mi
I 90 Montana State Line .1 Apr 07, 2020 01:44 pm Wet 93.6°F None None 19 mph 30 mph NE 21.2°F 19% 64.4°F > 1/2 mi
I 90 Pompey Creek 35.3 Apr 07, 2020 01:44 pm N/A   None None 16 mph 25 mph W   16% 51.8°F > 1/2 mi
I 90 Sheridan/Johnson County Line 41.33 Apr 07, 2020 01:44 pm Dry 84.9°F None None 24 mph 32 mph E   20% 50.0°F < 1/2 mi
I 90 Piney Creek Interchange 44.7 Apr 07, 2020 01:44 pm Dry 53.4°F None None 19 mph 29 mph NW 17.6°F 17% 62.6°F > 1/2 mi
I 90 Kearny Divide 45.33 Apr 07, 2020 01:44 pm Dry   None None 20 mph 24 mph NW   15% 51.8°F > 1/2 mi
I 90 Indian Creek Road 83.3 Apr 07, 2020 01:44 pm Dry 97.3°F None None 14 mph 23 mph S 15.8°F 15% 62.6°F > 1/2 mi
I 90 Dead Horse 91.5 Apr 07, 2020 01:44 pm Dry 98.2°F None None 13 mph 20 mph W 10.4°F 10% 69.8°F > 1/2 mi
I 90 Mile Marker 108 108 Apr 07, 2020 01:44 pm N/A   None None 16 mph 24 mph NW 17.6°F 18% 62.6°F > 1/2 mi
I 90 Inyan Kara 170.5 Apr 07, 2020 01:44 pm Dry 93.4°F None   14 mph 25 mph NW 10.4°F 11% 64.4°F  
I 90 Beulah 205.9 Apr 07, 2020 01:44 pm Dry 83.3°F None None 19 mph 27 mph W 24.8°F 19% 66.2°F > 1/2 mi
US 14 Ucross 27.83 Apr 07, 2020 01:44 pm Wet 89.2°F None None 4 mph 14 mph SE 19.4°F 16% 66.2°F N/A
US 14 Granite Pass 38.95 Apr 07, 2020 01:44 pm N/A   Freezing Rain None 25 mph 36 mph NE 19.4°F 47% 37.4°F > 1/2 mi
US 16 Big Horn County Line 44.01 Apr 07, 2020 01:44 pm Dry 78.3°F None None 6 mph 11 mph W 21.2°F 40% 42.8°F > 1/2 mi
US 191 Farson 40.45 Apr 07, 2020 01:44 pm N/A   None None 17 mph 25 mph S 24.8°F 31% 53.6°F > 1/2 mi
US 20 Natrona 30 Apr 07, 2020 01:44 pm Dry 90.5°F None   23 mph 37 mph SW 24.8°F 26% 60.8°F > 1/2 mi
US 20 Hiland 57.4 Apr 07, 2020 01:38 pm Dry 88.9°F None None 30 mph 40 mph SW 23.0°F 24% 59.0°F > 1/2 mi
US 20 Van Tassell 57.85 Apr 07, 2020 01:44 pm Dry 82.9°F None None 28 mph 42 mph NW 24.8°F 22% 64.4°F > 1/2 mi
US 26 Wind River Lake 26.05 Apr 07, 2020 01:44 pm Dry 61.0°F None None 14 mph 21 mph N 21.2°F 66% 32.0°F > 1/2 mi
US 287 Pumpkin Vine 420.4 Apr 07, 2020 01:44 pm N/A   None None 24 mph 39 mph W 12.2°F 18% 53.6°F > 1/2 mi
US 30 Sage Junction 34 Apr 07, 2020 01:44 pm N/A   None None 11 mph 15 mph W 26.6°F 35% 53.6°F > 1/2 mi
US 30 Nugget Canyon 39.7 Apr 07, 2020 01:44 pm N/A   None None 6 mph 13 mph W 24.8°F 35% 51.8°F > 1/2 mi
US 85 Gun Barrel 46.8 Apr 07, 2020 01:44 pm Wet 95.7°F None None 25 mph 34 mph SW 21.2°F 19% 64.4°F  
US 85 Four Corners 247.2 Apr 07, 2020 01:44 pm Dry 76.3°F None None 11 mph 26 mph SW 23.0°F 31% 53.6°F > 1/2 mi
WY 120 Meeteetse 61.5 Apr 07, 2020 01:44 pm Wet 69.8°F None   3 mph 42 mph E 15.8°F 20% 55.4°F  
WY 210 Wildcat Trail 21.52 Apr 07, 2020 01:44 pm Dry 90.0°F None None 22 mph 39 mph W 14.0°F 18% 55.4°F > 1/2 mi
WY 210 Hynds Lodge Road 24.55 Apr 07, 2020 01:44 pm Dry 91.0°F None None 22 mph 37 mph SW 14.0°F 20% 53.6°F > 1/2 mi
WY 22 Teton Pass 11.2 Apr 07, 2020 01:44 pm Dry 57.0°F None None 2 mph 9 mph SW 35.6°F 69% 44.6°F > 1/2 mi
WY 220 Pathfinder Hill 80.1 Apr 07, 2020 01:44 pm Dry 82.8°F None None 33 mph 41 mph W 24.8°F 31% 55.4°F > 1/2 mi
WY 230 Skyline 230 113.2 Apr 07, 2020 01:44 pm Dry 85.6°F None None 24 mph 38 mph SW 19.4°F 33% 46.4°F > 1/2 mi
WY 258 Outer Drive 13.77 Apr 07, 2020 01:44 pm Dry 81.0°F None None 34 mph 50 mph SW 24.8°F 25% 59.0°F > 1/2 mi
WY 28 New South Pass 41.4 Apr 07, 2020 01:44 pm Dry 64.9°F None None 18 mph 22 mph W 26.6°F 59% 39.2°F > 1/2 mi
WY 28 Lower Red Canyon 59.71 Apr 07, 2020 01:44 pm Dry 76.1°F None None 23 mph 42 mph W 26.6°F 36% 51.8°F > 1/2 mi
WY 296 Chief Joseph 32.96 Apr 07, 2020 01:44 pm Dry 54.7°F None None 25 mph 33 mph NW 19.4°F 49% 37.4°F  
WY 372 Shute Creek 36 Apr 07, 2020 01:44 pm Dry 88.2°F None   15 mph 25 mph W 24.8°F 34% 53.6°F  
WY 387 Pine Tree Junction 131.79 Apr 07, 2020 01:44 pm N/A   None   28 mph 38 mph W 24.8°F 25% 59.0°F  
WY 487 Shirley Rim 37 Apr 07, 2020 01:44 pm Dry 80.6°F None None 24 mph 34 mph SW 24.8°F 38% 50.0°F > 1/2 mi
WY 59 Belle Fourche 87 Apr 07, 2020 01:44 pm Dry 83.7°F None   25 mph 35 mph W 19.4°F 18% 64.4°F  
WY 789 Beaver Rim 48.1 Apr 07, 2020 01:44 pm     None None 30 mph 41 mph W 33.8°F 48% 51.8°F > 1/2 mi

Contact Us
Copyright 2020 Disclaimer Privacy Policy Media